Time;durP1;ratioP1;P1;durP2;ratioP2;P2;SDS_P1;SDS_P2;PMS_P1;PMS_P2;Temp;Humidity;BMP_temperature;BMP_pressure;BME280_temperature;BME280_humidity;BME280_pressure;Samples;Min_cycle;Max_cycle;Signal;HPM_P1;HPM_P2
2023/12/17 00:00:37;;;;;;;21.90;12.67;;;8.90;99.90;;;;;;5047408;28;20255;-68
2023/12/17 00:03:06;;;;;;;17.63;13.17;;;8.90;99.90;;;;;;5029998;28;20262;-68
2023/12/17 00:05:32;;;;;;;20.37;12.33;;;8.90;99.90;;;;;;5029666;28;20237;-68
2023/12/17 00:07:59;;;;;;;16.10;12.57;;;8.80;99.90;;;;;;5029916;28;20239;-68
2023/12/17 00:10:26;;;;;;;17.40;12.70;;;8.90;99.90;;;;;;5034191;28;20310;-68
2023/12/17 00:12:53;;;;;;;19.27;13.00;;;8.90;99.90;;;;;;5049571;28;20242;-68
2023/12/17 00:15:20;;;;;;;16.67;12.43;;;8.90;99.90;;;;;;5049779;28;20215;-68
2023/12/17 00:17:47;;;;;;;18.00;13.10;;;8.90;99.90;;;;;;5049911;28;20238;-68
2023/12/17 00:20:19;;;;;;;16.03;12.17;;;8.90;99.90;;;;;;5049392;28;20203;-68
2023/12/17 00:22:47;;;;;;;14.70;11.80;;;8.90;99.90;;;;;;5042208;28;20280;-68
2023/12/17 00:25:14;;;;;;;14.33;12.00;;;8.90;99.90;;;;;;5029484;28;20233;-69
2023/12/17 00:27:41;;;;;;;14.37;12.03;;;8.90;99.90;;;;;;5029219;28;20815;-69
2023/12/17 00:30:09;;;;;;;15.63;12.10;;;8.90;99.90;;;;;;5028371;28;20303;-68
2023/12/17 00:32:36;;;;;;;15.00;11.77;;;8.90;99.90;;;;;;5047855;28;20200;-68
2023/12/17 00:35:03;;;;;;;15.37;12.30;;;8.90;99.90;;;;;;5048745;28;20231;-68
2023/12/17 00:37:31;;;;;;;16.23;11.83;;;8.90;99.90;;;;;;5049358;28;20246;-68
2023/12/17 00:39:58;;;;;;;15.00;12.53;;;8.90;99.90;;;;;;5048718;28;20294;-68
2023/12/17 00:42:25;;;;;;;13.03;11.53;;;8.90;99.90;;;;;;5048960;28;20204;-68
2023/12/17 00:44:52;;;;;;;15.83;12.30;;;8.90;99.90;;;;;;5049019;28;20239;-68
2023/12/17 00:47:19;;;;;;;14.97;12.30;;;8.90;99.90;;;;;;5036701;28;20311;-68
2023/12/17 00:49:46;;;;;;;16.43;11.93;;;8.90;99.90;;;;;;5034929;28;20342;-68
2023/12/17 00:52:12;;;;;;;14.43;11.90;;;8.90;99.90;;;;;;5048754;28;20573;-69
2023/12/17 00:54:41;;;;;;;14.93;12.10;;;8.90;99.90;;;;;;5049126;28;20223;-69
2023/12/17 00:57:08;;;;;;;17.17;11.67;;;8.90;99.90;;;;;;5043526;28;20291;-67
2023/12/17 00:59:34;;;;;;;15.37;12.27;;;8.90;99.90;;;;;;5028924;28;20304;-68
2023/12/17 01:02:01;;;;;;;15.57;12.30;;;8.90;99.90;;;;;;5038958;28;20214;-67
2023/12/17 01:04:28;;;;;;;16.13;12.47;;;8.90;99.90;;;;;;5048327;28;20208;-67
2023/12/17 01:06:55;;;;;;;15.60;11.27;;;8.90;99.90;;;;;;5048794;28;20581;-67
2023/12/17 01:09:22;;;;;;;16.67;11.73;;;8.90;99.90;;;;;;5048335;28;20242;-67
2023/12/17 01:11:50;;;;;;;18.13;12.13;;;8.90;99.90;;;;;;5048183;28;20678;-67
2023/12/17 01:14:17;;;;;;;18.30;11.83;;;8.90;99.90;;;;;;5039089;28;20989;-67
2023/12/17 01:16:44;;;;;;;18.20;12.20;;;9.00;99.90;;;;;;5028754;28;20295;-67
2023/12/17 01:19:11;;;;;;;15.40;12.40;;;9.00;99.90;;;;;;5028350;28;20695;-67
2023/12/17 01:21:38;;;;;;;17.90;12.03;;;9.00;99.90;;;;;;5028646;28;20208;-67
2023/12/17 01:24:05;;;;;;;16.27;12.00;;;8.90;99.90;;;;;;5028240;28;20199;-67
2023/12/17 01:26:32;;;;;;;14.73;12.17;;;8.90;99.90;;;;;;5028584;28;20361;-68
2023/12/17 01:29:00;;;;;;;15.07;12.20;;;9.00;99.90;;;;;;5048295;28;20295;-68
2023/12/17 01:31:28;;;;;;;16.07;12.47;;;8.90;99.90;;;;;;5048362;28;20218;-68
2023/12/17 01:33:55;;;;;;;15.83;12.20;;;8.90;99.90;;;;;;5047650;28;20696;-67
2023/12/17 01:36:22;;;;;;;13.43;11.73;;;8.90;99.90;;;;;;5047834;28;20311;-68
2023/12/17 01:38:49;;;;;;;14.93;11.87;;;8.90;99.90;;;;;;5047851;28;20250;-67
2023/12/17 01:41:15;;;;;;;15.50;12.50;;;9.00;99.90;;;;;;5047588;28;20299;-68
2023/12/17 01:43:42;;;;;;;15.57;11.63;;;8.90;99.90;;;;;;5047219;28;20674;-68
2023/12/17 01:46:11;;;;;;;14.03;12.53;;;8.90;99.90;;;;;;5041640;28;20603;-68
2023/12/17 01:48:38;;;;;;;16.63;12.47;;;8.90;99.90;;;;;;5028031;28;20233;-68
2023/12/17 01:51:05;;;;;;;14.30;12.27;;;8.90;99.90;;;;;;5027724;28;20692;-68
2023/12/17 01:53:32;;;;;;;14.03;12.60;;;9.00;99.90;;;;;;5034299;28;20216;-68
2023/12/17 01:55:59;;;;;;;15.57;13.27;;;9.00;99.90;;;;;;5047792;28;20287;-68
2023/12/17 01:58:27;;;;;;;16.23;12.60;;;9.00;99.90;;;;;;5047761;28;20262;-68
2023/12/17 02:00:54;;;;;;;14.23;11.90;;;8.90;99.90;;;;;;5046514;28;20674;-68
2023/12/17 02:03:22;;;;;;;14.37;12.23;;;8.90;99.90;;;;;;5047529;28;20298;-68
2023/12/17 02:05:49;;;;;;;17.07;12.53;;;9.00;99.90;;;;;;5047724;28;20318;-68
2023/12/17 02:08:16;;;;;;;14.40;12.20;;;9.00;99.90;;;;;;5045725;28;20348;-68
2023/12/17 02:10:43;;;;;;;16.23;12.00;;;9.00;99.90;;;;;;5047367;28;20240;-68
2023/12/17 02:13:10;;;;;;;13.80;11.67;;;9.00;99.90;;;;;;5047381;28;20242;-69
2023/12/17 02:15:37;;;;;;;14.93;12.63;;;9.00;99.90;;;;;;5047385;28;20330;-68
2023/12/17 02:18:04;;;;;;;13.43;12.00;;;9.00;99.90;;;;;;5047119;28;20200;-68
2023/12/17 02:20:34;;;;;;;14.33;11.90;;;9.00;99.90;;;;;;5047154;28;20200;-68
2023/12/17 02:23:04;;;;;;;14.40;11.77;;;9.00;99.90;;;;;;5037384;28;20286;-68
2023/12/17 02:25:31;;;;;;;14.53;12.43;;;9.00;99.90;;;;;;5046710;28;20266;-68
2023/12/17 02:27:58;;;;;;;18.03;11.60;;;9.00;99.90;;;;;;5047077;28;20247;-68
2023/12/17 02:30:25;;;;;;;13.43;11.63;;;9.00;99.90;;;;;;5046849;28;20670;-68
2023/12/17 02:32:52;;;;;;;12.67;11.37;;;9.00;99.90;;;;;;5046845;28;20247;-68
2023/12/17 02:35:21;;;;;;;13.60;12.00;;;9.00;99.90;;;;;;5047165;28;20291;-68
2023/12/17 02:37:48;;;;;;;14.93;12.20;;;9.00;99.90;;;;;;5047012;28;20294;-67
2023/12/17 02:40:16;;;;;;;13.47;11.87;;;9.10;99.90;;;;;;5046563;28;20769;-67
2023/12/17 02:42:44;;;;;;;13.50;11.97;;;9.10;99.90;;;;;;5046770;28;20303;-67
2023/12/17 02:45:11;;;;;;;15.07;12.60;;;9.10;99.90;;;;;;5046806;28;20482;-67
2023/12/17 02:47:38;;;;;;;12.73;11.47;;;9.00;99.90;;;;;;5047082;28;20315;-67
2023/12/17 02:50:06;;;;;;;16.17;11.97;;;9.00;99.90;;;;;;5046592;28;20243;-67
2023/12/17 02:52:32;;;;;;;13.77;12.37;;;9.00;99.90;;;;;;5046794;28;20696;-69
2023/12/17 02:54:59;;;;;;;14.03;11.80;;;9.10;99.90;;;;;;5046064;28;20655;-68
2023/12/17 02:57:28;;;;;;;12.93;11.50;;;9.10;99.90;;;;;;5046880;28;20311;-69
2023/12/17 02:59:56;;;;;;;13.20;11.80;;;9.00;99.90;;;;;;5046641;28;20232;-68
2023/12/17 03:02:22;;;;;;;13.67;11.70;;;9.10;99.90;;;;;;5046666;28;20299;-68
2023/12/17 03:04:49;;;;;;;13.87;11.83;;;9.00;99.90;;;;;;5046347;28;20299;-68
2023/12/17 03:07:18;;;;;;;13.23;11.70;;;9.10;99.90;;;;;;5045903;28;20258;-69
2023/12/17 03:09:45;;;;;;;15.27;12.47;;;9.00;99.90;;;;;;5046794;28;20267;-68
2023/12/17 03:12:11;;;;;;;15.40;12.47;;;9.00;99.90;;;;;;5046424;28;20293;-68
2023/12/17 03:14:40;;;;;;;18.10;12.20;;;9.00;99.90;;;;;;5046299;28;20286;-69
2023/12/17 03:17:07;;;;;;;14.37;12.20;;;9.10;99.90;;;;;;5046476;28;20215;-68
2023/12/17 03:19:34;;;;;;;14.57;11.80;;;9.00;99.90;;;;;;5047348;28;20216;-68
2023/12/17 03:22:01;;;;;;;13.40;12.00;;;9.00;99.90;;;;;;5038375;28;20228;-68
2023/12/17 03:24:27;;;;;;;16.30;12.73;;;9.10;99.90;;;;;;5026275;28;20215;-68
2023/12/17 03:26:54;;;;;;;16.47;11.90;;;9.00;99.90;;;;;;5026233;28;20331;-68
2023/12/17 03:29:21;;;;;;;13.57;12.17;;;9.10;99.90;;;;;;5026828;28;20295;-68
2023/12/17 03:31:50;;;;;;;15.93;12.03;;;9.00;99.90;;;;;;5026399;28;20287;-68
2023/12/17 03:34:16;;;;;;;14.17;12.50;;;9.10;99.90;;;;;;5033813;28;20232;-68
2023/12/17 03:36:43;;;;;;;15.13;11.87;;;9.10;99.90;;;;;;5037333;28;20998;-68
2023/12/17 03:39:10;;;;;;;14.37;12.73;;;9.10;99.90;;;;;;5040517;28;20380;-68
2023/12/17 03:41:37;;;;;;;15.27;12.60;;;9.10;99.90;;;;;;5037450;28;20292;-68
2023/12/17 03:44:04;;;;;;;14.43;12.27;;;9.10;99.90;;;;;;5039566;28;20625;-68
2023/12/17 03:46:31;;;;;;;15.83;13.53;;;9.10;99.90;;;;;;5038539;28;20232;-68
2023/12/17 03:48:59;;;;;;;15.90;12.80;;;9.10;99.90;;;;;;5034538;28;20339;-68
2023/12/17 03:51:26;;;;;;;14.60;12.53;;;9.10;99.90;;;;;;5034577;28;20197;-68
2023/12/17 03:53:53;;;;;;;13.80;12.23;;;9.00;99.90;;;;;;5035492;28;20201;-68
2023/12/17 03:56:22;;;;;;;16.67;12.47;;;9.10;99.90;;;;;;5033903;28;20697;-68
2023/12/17 03:58:49;;;;;;;16.40;12.13;;;9.10;99.90;;;;;;5034075;28;20746;-68
2023/12/17 04:01:16;;;;;;;15.40;12.80;;;9.10;99.90;;;;;;5039460;28;20236;-68
2023/12/17 04:03:43;;;;;;;16.77;12.73;;;9.10;99.90;;;;;;5045722;28;20239;-68
2023/12/17 04:06:11;;;;;;;14.90;12.77;;;9.00;99.90;;;;;;5047734;28;20724;-68
2023/12/17 04:08:38;;;;;;;18.03;12.57;;;9.10;99.90;;;;;;5042267;28;20319;-68
2023/12/17 04:11:05;;;;;;;16.10;12.27;;;9.10;99.90;;;;;;5048540;28;20295;-68
2023/12/17 04:13:32;;;;;;;16.43;13.23;;;9.00;99.90;;;;;;5049580;28;20208;-68
2023/12/17 04:15:59;;;;;;;16.23;12.97;;;9.00;99.90;;;;;;5049816;28;20254;-68
2023/12/17 04:18:25;;;;;;;16.20;13.27;;;9.10;99.90;;;;;;5049166;28;20299;-67
2023/12/17 04:20:52;;;;;;;15.97;12.87;;;9.00;99.90;;;;;;5049206;28;20239;-68
2023/12/17 04:23:21;;;;;;;16.97;13.17;;;9.00;99.90;;;;;;5049532;28;20738;-67
2023/12/17 04:25:47;;;;;;;14.47;12.60;;;9.00;99.90;;;;;;5049421;28;20254;-68
2023/12/17 04:28:14;;;;;;;14.80;12.97;;;9.00;99.90;;;;;;5049322;28;20203;-68
2023/12/17 04:30:41;;;;;;;15.53;13.13;;;9.00;99.90;;;;;;5030140;28;20293;-68
2023/12/17 04:33:08;;;;;;;16.47;12.73;;;9.00;99.90;;;;;;5028818;28;20679;-68
2023/12/17 04:35:35;;;;;;;14.93;12.73;;;9.00;99.90;;;;;;5033009;28;20205;-68
2023/12/17 04:38:02;;;;;;;16.70;12.70;;;9.00;99.90;;;;;;5029287;28;20296;-69
2023/12/17 04:40:30;;;;;;;15.67;12.77;;;9.00;99.90;;;;;;5029587;28;20205;-69
2023/12/17 04:42:57;;;;;;;20.00;12.80;;;9.00;99.90;;;;;;5040658;28;20307;-69
2023/12/17 04:45:24;;;;;;;14.90;13.00;;;9.00;99.90;;;;;;5049250;28;20243;-69
2023/12/17 04:47:51;;;;;;;14.00;12.43;;;9.10;99.90;;;;;;5049070;28;20336;-69
2023/12/17 04:50:18;;;;;;;15.47;12.83;;;9.10;99.90;;;;;;5048771;28;20705;-69
2023/12/17 04:52:45;;;;;;;16.30;12.67;;;9.10;99.90;;;;;;5032225;28;20312;-68
2023/12/17 04:55:12;;;;;;;15.43;12.10;;;9.10;99.90;;;;;;5028839;28;20340;-69
2023/12/17 04:57:41;;;;;;;14.03;12.53;;;9.10;99.90;;;;;;5029519;28;20254;-68
2023/12/17 05:00:09;;;;;;;14.63;12.07;;;9.10;99.90;;;;;;5028772;28;20594;-68
2023/12/17 05:02:36;;;;;;;14.67;11.97;;;9.10;99.90;;;;;;5038936;28;20208;-68
2023/12/17 05:05:03;;;;;;;12.60;11.30;;;9.10;99.90;;;;;;5048289;28;20261;-68
2023/12/17 05:07:29;;;;;;;13.20;11.83;;;9.10;99.90;;;;;;5048125;28;20923;-69
2023/12/17 05:09:57;;;;;;;16.50;12.07;;;9.20;99.90;;;;;;5048312;28;20307;-69
2023/12/17 05:12:24;;;;;;;13.87;11.63;;;9.10;99.90;;;;;;5049153;28;20792;-68
2023/12/17 05:14:52;;;;;;;13.37;11.43;;;9.10;99.90;;;;;;5035732;28;20291;-68
2023/12/17 05:17:19;;;;;;;13.77;11.37;;;9.20;99.90;;;;;;5027525;28;20307;-68
2023/12/17 05:19:46;;;;;;;14.17;11.87;;;9.20;99.90;;;;;;5028366;28;20209;-68
2023/12/17 05:22:13;;;;;;;14.27;11.57;;;9.20;99.90;;;;;;5028172;28;20223;-68
2023/12/17 05:24:40;;;;;;;13.70;11.67;;;9.20;99.90;;;;;;5028495;28;20220;-68
2023/12/17 05:27:06;;;;;;;13.03;11.47;;;9.20;99.90;;;;;;5028271;28;20240;-68
2023/12/17 05:29:33;;;;;;;16.63;12.03;;;9.20;99.90;;;;;;5028453;28;20236;-68
2023/12/17 05:32:02;;;;;;;12.93;11.60;;;9.20;99.90;;;;;;5045327;28;20307;-68
2023/12/17 05:34:29;;;;;;;13.23;11.80;;;9.10;99.90;;;;;;5048111;28;20208;-68
2023/12/17 05:36:56;;;;;;;13.03;11.73;;;9.10;99.90;;;;;;5040576;28;20292;-68
2023/12/17 05:39:23;;;;;;;13.60;12.07;;;9.10;99.90;;;;;;5040781;28;20303;-68
2023/12/17 05:41:50;;;;;;;14.60;12.47;;;9.10;99.90;;;;;;5047252;28;20266;-68
2023/12/17 05:44:17;;;;;;;15.97;12.73;;;9.10;99.90;;;;;;5028074;28;20212;-68
2023/12/17 05:46:44;;;;;;;13.53;12.10;;;9.10;99.90;;;;;;5046507;28;20596;-68
2023/12/17 05:49:12;;;;;;;13.90;11.40;;;9.10;99.90;;;;;;5047393;28;20652;-68
2023/12/17 05:51:43;;;;;;;12.73;10.87;;;9.00;99.90;;;;;;5047833;28;20303;-68
2023/12/17 05:54:11;;;;;;;13.47;11.17;;;9.00;99.90;;;;;;5047640;28;20286;-68
2023/12/17 05:56:42;;;;;;;12.80;10.93;;;9.10;99.90;;;;;;5047626;28;20212;-68
2023/12/17 05:59:09;;;;;;;13.07;11.40;;;9.10;99.90;;;;;;5047673;28;20291;-69
2023/12/17 06:01:36;;;;;;;12.33;11.03;;;9.10;99.90;;;;;;5032026;28;20209;-68
2023/12/17 06:04:03;;;;;;;15.50;11.00;;;9.10;99.90;;;;;;5047305;28;20261;-68
2023/12/17 06:06:31;;;;;;;10.97;9.87;;;9.00;99.90;;;;;;5034467;28;20208;-69
2023/12/17 06:08:58;;;;;;;12.20;10.90;;;9.00;99.90;;;;;;5038025;28;20327;-69
2023/12/17 06:11:25;;;;;;;12.67;10.60;;;9.10;99.90;;;;;;5047154;28;20641;-68
2023/12/17 06:13:52;;;;;;;12.93;11.03;;;9.00;99.90;;;;;;5047311;28;20296;-68
2023/12/17 06:16:18;;;;;;;11.33;10.23;;;9.00;99.90;;;;;;5047186;28;20287;-69
2023/12/17 06:18:45;;;;;;;11.57;10.37;;;9.10;99.90;;;;;;5046933;28;20208;-68
2023/12/17 06:21:22;;;;;;;12.23;10.57;;;9.10;99.90;;;;;;5046739;28;20204;-69
2023/12/17 06:23:50;;;;;;;11.07;9.90;;;9.10;99.90;;;;;;5047183;28;20286;-69
2023/12/17 06:26:19;;;;;;;11.80;10.60;;;9.10;99.90;;;;;;5047056;28;20690;-68
2023/12/17 06:28:46;;;;;;;12.13;10.03;;;9.10;99.90;;;;;;5035191;28;20243;-69
2023/12/17 06:31:12;;;;;;;11.33;10.13;;;9.10;99.90;;;;;;5027104;28;20241;-69
2023/12/17 06:33:39;;;;;;;12.20;9.80;;;9.10;99.90;;;;;;5026819;28;20330;-69
2023/12/17 06:36:07;;;;;;;10.23;9.23;;;9.10;99.90;;;;;;5043016;28;20208;-68
2023/12/17 06:38:34;;;;;;;11.17;9.37;;;9.10;99.90;;;;;;5046927;28;20246;-69
2023/12/17 06:41:02;;;;;;;10.60;9.60;;;9.00;99.90;;;;;;5046259;28;20208;-69
2023/12/17 06:43:29;;;;;;;10.43;9.33;;;9.10;99.90;;;;;;5046951;28;20304;-68
2023/12/17 06:45:56;;;;;;;11.10;9.50;;;9.10;99.90;;;;;;5044808;28;20224;-68
2023/12/17 06:48:23;;;;;;;11.17;9.47;;;9.10;99.90;;;;;;5045799;28;20343;-69
2023/12/17 06:50:49;;;;;;;10.33;9.20;;;9.20;99.90;;;;;;5047083;28;20315;-69
2023/12/17 06:53:17;;;;;;;10.43;8.87;;;9.20;99.90;;;;;;5046614;28;20306;-69
2023/12/17 06:55:44;;;;;;;9.77;8.77;;;9.10;99.90;;;;;;5046872;28;20196;-69
2023/12/17 06:58:13;;;;;;;9.43;8.53;;;9.20;99.90;;;;;;5046754;28;20208;-70
2023/12/17 07:00:40;;;;;;;10.07;9.07;;;9.10;99.90;;;;;;5046974;28;20299;-69
2023/12/17 07:03:07;;;;;;;10.10;9.07;;;9.20;99.90;;;;;;5046226;28;20299;-69
2023/12/17 07:05:34;;;;;;;9.13;8.23;;;9.20;99.90;;;;;;5035133;28;20266;-69
2023/12/17 07:08:00;;;;;;;8.93;8.03;;;9.30;99.90;;;;;;5027575;28;20244;-69
2023/12/17 07:10:27;;;;;;;9.27;8.33;;;9.20;99.90;;;;;;5031738;28;20212;-69
2023/12/17 07:12:54;;;;;;;8.73;7.90;;;9.30;99.90;;;;;;5046195;28;20346;-69
2023/12/17 07:15:22;;;;;;;8.63;7.83;;;9.30;99.90;;;;;;5046578;28;20250;-69
2023/12/17 07:17:49;;;;;;;8.37;7.57;;;9.30;99.90;;;;;;5046703;28;20247;-69
2023/12/17 07:20:16;;;;;;;8.70;7.90;;;9.30;99.90;;;;;;5046551;28;20204;-69
2023/12/17 07:22:43;;;;;;;8.37;7.67;;;9.30;99.90;;;;;;5046400;28;20208;-69
2023/12/17 07:25:11;;;;;;;8.33;7.53;;;9.30;99.90;;;;;;5046696;28;20562;-69
2023/12/17 07:27:37;;;;;;;7.73;7.03;;;9.30;99.90;;;;;;5046727;28;20310;-69
2023/12/17 07:30:05;;;;;;;7.90;7.30;;;9.30;99.90;;;;;;5045889;28;20226;-69
2023/12/17 07:32:33;;;;;;;7.87;7.17;;;9.30;99.90;;;;;;5046337;28;21049;-69
2023/12/17 07:35:00;;;;;;;8.20;7.50;;;9.40;99.90;;;;;;5046001;28;20208;-69
2023/12/17 07:37:27;;;;;;;7.53;6.90;;;9.40;99.90;;;;;;5041355;28;20212;-69
2023/12/17 07:39:54;;;;;;;7.07;6.40;;;9.30;99.90;;;;;;5026628;28;20204;-69
2023/12/17 07:42:21;;;;;;;7.90;7.13;;;9.40;99.90;;;;;;5049379;28;20200;-70
2023/12/17 07:44:48;;;;;;;7.40;6.70;;;9.40;99.90;;;;;;5050319;28;20203;-69
2023/12/17 07:47:14;;;;;;;7.30;6.60;;;9.40;99.90;;;;;;5049428;28;20861;-69
2023/12/17 07:49:43;;;;;;;7.20;6.63;;;9.40;99.90;;;;;;5040916;28;20271;-69
2023/12/17 07:52:11;;;;;;;6.50;5.90;;;9.40;99.90;;;;;;5041777;28;20222;-69
2023/12/17 07:54:38;;;;;;;6.87;6.30;;;9.40;99.90;;;;;;5050280;28;20613;-69
2023/12/17 07:57:05;;;;;;;6.47;5.97;;;9.50;99.90;;;;;;5050016;28;20582;-68
2023/12/17 07:59:32;;;;;;;6.93;6.33;;;9.40;99.90;;;;;;5049825;28;20295;-69
2023/12/17 08:01:59;;;;;;;7.30;6.63;;;9.40;99.90;;;;;;5049197;28;20224;-68
2023/12/17 08:04:26;;;;;;;6.60;6.03;;;9.50;99.90;;;;;;5048440;28;20239;-69
2023/12/17 08:06:54;;;;;;;6.50;5.93;;;9.50;99.90;;;;;;5041822;28;20287;-68
2023/12/17 08:09:21;;;;;;;6.77;6.17;;;9.50;99.90;;;;;;5038422;28;20355;-69
2023/12/17 08:11:48;;;;;;;6.67;6.07;;;9.50;99.90;;;;;;5042169;28;20204;-69
2023/12/17 08:14:14;;;;;;;7.07;6.43;;;9.50;99.90;;;;;;5037821;28;20234;-69
2023/12/17 08:16:43;;;;;;;7.13;6.43;;;9.50;99.90;;;;;;5032318;28;20206;-69
2023/12/17 08:19:10;;;;;;;6.73;6.20;;;9.50;99.90;;;;;;5036449;28;20208;-69
2023/12/17 08:21:37;;;;;;;7.13;6.43;;;9.50;99.90;;;;;;5048012;28;20216;-69
2023/12/17 08:24:06;;;;;;;6.33;5.83;;;9.50;99.90;;;;;;5049515;28;20208;-69
2023/12/17 08:26:33;;;;;;;5.83;5.43;;;9.50;99.90;;;;;;5040016;28;20205;-69
2023/12/17 08:29:00;;;;;;;7.10;6.43;;;9.50;99.90;;;;;;5029367;28;20232;-69
2023/12/17 08:31:27;;;;;;;6.30;5.80;;;9.50;99.90;;;;;;5032754;28;20292;-69
2023/12/17 08:33:54;;;;;;;6.13;5.67;;;9.50;99.90;;;;;;5048790;28;20220;-69
2023/12/17 08:36:23;;;;;;;6.60;6.10;;;9.50;99.90;;;;;;5046383;28;20204;-69
2023/12/17 08:38:50;;;;;;;6.03;5.63;;;9.50;99.90;;;;;;5029143;28;20950;-69
2023/12/17 08:41:18;;;;;;;6.40;5.90;;;9.50;99.90;;;;;;5037765;28;20217;-69
2023/12/17 08:43:45;;;;;;;6.30;5.80;;;9.50;99.90;;;;;;5037648;28;20208;-68
2023/12/17 08:46:12;;;;;;;6.03;5.50;;;9.50;99.90;;;;;;5049053;28;20235;-69
2023/12/17 08:48:39;;;;;;;5.93;5.53;;;9.50;99.90;;;;;;5049057;28;20228;-68
2023/12/17 08:51:06;;;;;;;6.47;5.93;;;9.50;99.90;;;;;;5040296;28;20274;-69
2023/12/17 08:53:33;;;;;;;6.13;5.70;;;9.60;99.90;;;;;;5028929;28;20303;-69
2023/12/17 08:56:02;;;;;;;6.27;5.77;;;9.50;99.90;;;;;;5028970;28;20316;-69
2023/12/17 08:58:30;;;;;;;6.20;5.60;;;9.60;99.90;;;;;;5044158;28;20212;-69
2023/12/17 09:00:57;;;;;;;5.97;5.57;;;9.60;99.90;;;;;;5049015;28;20212;-69
2023/12/17 09:03:24;;;;;;;5.87;5.47;;;9.60;99.90;;;;;;5048557;28;20306;-69
2023/12/17 09:05:51;;;;;;;6.07;5.67;;;9.60;99.90;;;;;;5048815;28;20287;-69
2023/12/17 09:08:18;;;;;;;6.30;5.80;;;9.60;99.90;;;;;;5048037;28;20677;-69
2023/12/17 09:10:44;;;;;;;6.47;5.87;;;9.60;99.90;;;;;;5041795;28;20231;-69
2023/12/17 09:13:11;;;;;;;6.73;6.13;;;9.60;99.90;;;;;;5028337;28;20681;-70
2023/12/17 09:15:41;;;;;;;6.37;5.83;;;9.60;99.90;;;;;;5034693;28;20239;-69
2023/12/17 09:18:07;;;;;;;5.57;5.17;;;9.60;99.90;;;;;;5033165;28;20308;-69
2023/12/17 09:20:34;;;;;;;6.20;5.70;;;9.60;99.90;;;;;;5028527;28;20299;-69
2023/12/17 09:23:02;;;;;;;6.00;5.53;;;9.60;99.90;;;;;;5028396;28;20236;-68
2023/12/17 09:25:29;;;;;;;6.27;5.83;;;9.60;99.90;;;;;;5028333;28;20208;-69
2023/12/17 09:27:56;;;;;;;5.73;5.33;;;9.60;99.90;;;;;;5028136;28;20233;-69
2023/12/17 09:30:23;;;;;;;6.10;5.70;;;9.60;99.90;;;;;;5028485;28;20292;-69
2023/12/17 09:32:51;;;;;;;6.10;5.60;;;9.70;99.90;;;;;;5028320;28;20295;-69
2023/12/17 09:35:19;;;;;;;5.80;5.40;;;9.70;99.90;;;;;;5028031;28;20243;-69
2023/12/17 09:37:47;;;;;;;6.07;5.57;;;9.70;99.90;;;;;;5040361;28;20212;-69
2023/12/17 09:40:15;;;;;;;5.80;5.40;;;9.70;99.90;;;;;;5044856;28;20825;-69
2023/12/17 09:42:43;;;;;;;5.80;5.20;;;9.70;99.90;;;;;;5029902;28;20697;-69
2023/12/17 09:45:14;;;;;;;6.00;5.50;;;9.70;99.90;;;;;;5047415;28;20327;-69
2023/12/17 09:47:41;;;;;;;5.90;5.40;;;9.70;99.90;;;;;;5047435;28;20210;-69
2023/12/17 09:50:10;;;;;;;6.10;5.70;;;9.70;99.90;;;;;;5047189;28;20570;-69
2023/12/17 09:52:42;;;;;;;5.80;5.30;;;9.70;99.90;;;;;;5047655;28;20689;-69
2023/12/17 09:55:11;;;;;;;6.33;5.83;;;9.70;99.90;;;;;;5047621;28;21075;-69
2023/12/17 09:57:38;;;;;;;6.40;5.90;;;9.70;99.90;;;;;;5047450;28;20307;-69
2023/12/17 10:00:09;;;;;;;5.90;5.50;;;9.70;99.90;;;;;;5047617;28;20632;-69
2023/12/17 10:02:37;;;;;;;6.33;5.30;;;9.70;99.90;;;;;;5047515;28;20193;-69
2023/12/17 10:05:04;;;;;;;5.80;5.30;;;9.70;99.90;;;;;;5041744;28;20192;-69
2023/12/17 10:07:33;;;;;;;5.57;5.07;;;9.70;99.90;;;;;;5040972;28;20242;-69
2023/12/17 10:10:00;;;;;;;5.63;5.13;;;9.70;99.90;;;;;;5028036;28;20224;-69
2023/12/17 10:12:29;;;;;;;5.73;5.23;;;9.70;99.90;;;;;;5047219;28;20212;-69
2023/12/17 10:14:57;;;;;;;5.40;4.93;;;9.70;99.90;;;;;;5047096;28;20569;-69
2023/12/17 10:17:24;;;;;;;5.20;4.80;;;9.70;99.90;;;;;;5047381;28;20208;-69
2023/12/17 10:19:52;;;;;;;5.60;5.20;;;9.70;99.90;;;;;;5046902;28;20216;-69
2023/12/17 10:22:19;;;;;;;5.20;4.80;;;9.70;99.90;;;;;;5046937;28;20209;-68
2023/12/17 10:24:48;;;;;;;5.77;5.37;;;9.70;99.90;;;;;;5047174;28;20212;-69
2023/12/17 10:27:19;;;;;;;5.60;5.20;;;9.70;99.90;;;;;;5030884;28;20228;-69
2023/12/17 10:29:49;;;;;;;5.67;5.20;;;9.70;99.90;;;;;;5027053;28;20779;-69
2023/12/17 10:32:22;;;;;;;5.40;5.00;;;9.80;99.90;;;;;;5027653;28;20207;-68
2023/12/17 10:34:50;;;;;;;5.70;5.30;;;9.70;99.90;;;;;;5027024;28;20573;-68
2023/12/17 10:37:19;;;;;;;4.80;4.50;;;9.80;99.90;;;;;;5026834;28;20667;-68
2023/12/17 10:39:49;;;;;;;5.20;4.90;;;9.80;99.90;;;;;;5027201;28;20216;-69
2023/12/17 10:42:18;;;;;;;5.37;4.97;;;9.80;99.90;;;;;;5043241;28;20204;-70
2023/12/17 10:44:47;;;;;;;5.20;4.80;;;9.80;99.90;;;;;;5039117;28;20232;-68
2023/12/17 10:47:16;;;;;;;5.70;5.30;;;9.80;99.90;;;;;;5046531;28;20224;-68
2023/12/17 10:49:44;;;;;;;5.37;4.97;;;9.70;99.90;;;;;;5046097;28;20305;-69
2023/12/17 10:52:11;;;;;;;5.67;5.27;;;9.70;99.90;;;;;;5046455;28;21002;-69
2023/12/17 10:54:38;;;;;;;6.27;5.80;;;9.80;99.90;;;;;;5046526;28;20309;-69
2023/12/17 10:57:12;;;;;;;5.17;4.77;;;9.70;99.90;;;;;;5046099;28;20287;-67
2023/12/17 10:59:40;;;;;;;4.93;4.63;;;9.80;99.90;;;;;;5046248;28;20656;-67
2023/12/17 11:02:10;;;;;;;5.00;4.60;;;9.80;99.90;;;;;;5042960;28;20208;-68
2023/12/17 11:04:37;;;;;;;5.60;5.10;;;9.80;99.90;;;;;;5046207;28;20586;-68
2023/12/17 11:07:04;;;;;;;5.37;4.97;;;9.80;99.90;;;;;;5045357;28;20323;-69
2023/12/17 11:09:31;;;;;;;5.70;5.20;;;9.80;99.90;;;;;;5038630;28;20663;-68
2023/12/17 11:11:58;;;;;;;5.87;5.37;;;9.80;99.90;;;;;;5043221;28;20298;-68
2023/12/17 11:14:26;;;;;;;5.50;5.10;;;9.90;99.90;;;;;;5044731;28;20204;-68
2023/12/17 11:16:54;;;;;;;5.23;4.80;;;9.90;99.90;;;;;;5045820;28;20287;-68
2023/12/17 11:19:21;;;;;;;6.07;5.57;;;9.80;99.90;;;;;;5048660;28;20287;-68
2023/12/17 11:21:49;;;;;;;5.60;5.20;;;9.90;99.90;;;;;;5048202;28;20519;-68
2023/12/17 11:24:19;;;;;;;4.97;4.57;;;9.90;99.90;;;;;;5040073;28;20232;-68
2023/12/17 11:26:46;;;;;;;5.87;5.40;;;9.80;99.90;;;;;;5045714;28;20231;-68
2023/12/17 11:29:33;;;;;;;6.07;5.00;;;9.90;99.90;;;;;;5039755;28;20316;-68
2023/12/17 11:32:01;;;;;;;5.03;4.73;;;9.90;99.90;;;;;;5047925;28;20204;-68
2023/12/17 11:34:29;;;;;;;5.10;4.70;;;9.90;99.90;;;;;;5048060;28;20215;-68
2023/12/17 11:36:57;;;;;;;5.47;4.93;;;9.90;99.90;;;;;;5045674;28;20639;-68
2023/12/17 11:39:26;;;;;;;5.50;5.10;;;9.90;99.90;;;;;;5031195;28;20607;-68
2023/12/17 11:41:52;;;;;;;5.97;5.57;;;9.90;99.90;;;;;;5044536;28;20259;-68
2023/12/17 11:44:19;;;;;;;5.50;5.00;;;9.90;99.90;;;;;;5042257;28;20239;-68
2023/12/17 11:46:49;;;;;;;5.30;4.90;;;10.00;99.90;;;;;;5042830;28;20230;-68
2023/12/17 11:49:23;;;;;;;5.43;5.03;;;10.00;99.90;;;;;;5047733;28;20282;-68
2023/12/17 11:51:51;;;;;;;5.63;5.20;;;10.00;99.90;;;;;;5039675;28;20203;-68
2023/12/17 11:54:19;;;;;;;5.67;5.27;;;10.10;99.90;;;;;;5044064;28;20216;-69
2023/12/17 11:56:47;;;;;;;5.00;4.70;;;10.20;99.90;;;;;;5047741;28;20336;-68
2023/12/17 11:59:14;;;;;;;5.20;4.70;;;10.30;99.90;;;;;;5048107;28;20327;-68
2023/12/17 12:01:41;;;;;;;5.23;4.80;;;10.30;99.90;;;;;;5047850;28;20207;-68
2023/12/17 12:04:09;;;;;;;4.80;4.47;;;10.30;99.90;;;;;;5046738;28;20200;-68
2023/12/17 12:06:36;;;;;;;4.70;4.23;;;10.30;99.90;;;;;;5047646;28;20239;-68
2023/12/17 12:09:03;;;;;;;5.10;4.70;;;10.30;99.90;;;;;;5045864;28;20236;-69
2023/12/17 12:11:33;;;;;;;4.80;4.40;;;10.30;99.90;;;;;;5045598;28;20212;-69
2023/12/17 12:14:00;;;;;;;4.43;4.13;;;10.20;99.90;;;;;;5046019;28;20210;-68
2023/12/17 12:16:27;;;;;;;4.90;4.60;;;10.30;99.90;;;;;;5046365;28;20208;-69
2023/12/17 12:19:04;;;;;;;5.10;4.60;;;10.30;99.90;;;;;;5046365;28;20215;-68
2023/12/17 12:21:32;;;;;;;5.70;5.30;;;10.30;99.90;;;;;;5046406;28;20265;-68
2023/12/17 12:24:01;;;;;;;5.23;4.83;;;10.30;99.90;;;;;;5046473;28;20427;-69
2023/12/17 12:26:28;;;;;;;5.27;4.87;;;10.40;99.90;;;;;;5037719;28;20205;-69
2023/12/17 12:28:56;;;;;;;5.23;4.83;;;10.40;99.90;;;;;;5026470;28;20235;-69
2023/12/17 12:31:23;;;;;;;5.87;5.47;;;10.50;99.90;;;;;;5026909;28;20513;-68
2023/12/17 12:33:54;;;;;;;4.47;4.17;;;10.50;99.90;;;;;;5026499;28;20303;-69
2023/12/17 12:36:22;;;;;;;4.90;4.60;;;10.50;99.90;;;;;;5036263;28;20200;-69
2023/12/17 12:39:04;;;;;;;5.37;5.00;;;10.60;99.90;;;;;;5045658;28;20780;-68
2023/12/17 12:41:31;;;;;;;4.63;4.33;;;10.70;99.90;;;;;;5039925;28;20781;-67
2023/12/17 12:43:59;;;;;;;5.33;4.83;;;10.70;99.90;;;;;;5039720;28;20204;-69
2023/12/17 12:46:27;;;;;;;6.23;5.73;;;10.70;99.90;;;;;;5038395;28;20224;-70